DTTX/SFA METAR and TAF weather

Enter ICAO airport designator
Station Type Date Time Source
DTTX METAR 2020/09/22 21:00 UTC NOAA

DTTX 222100Z 00000KT 9999 FEW030 28/25 Q1013


Station Type Date Time Source
DTTX Decoded METAR 2020/09/22 21:00 UTC NOAA

Sfax El-Maou, Tunisia (DTTX) 34-43N 010-41E 23M
Sep 22, 2020 - 05:00 PM EDT / 2020.09.22 2100 UTC
Wind: Calm:0
Visibility: greater than 7 mile(s):0
Sky conditions: mostly clear
Temperature: 82 F (28 C)
Dew Point: 77 F (25 C)
Relative Humidity: 83%
Pressure (altimeter): 29.91 in. Hg (1013 hPa)
ob: DTTX 222100Z 00000KT 9999 FEW030 28/25 Q1013
cycle: 21

Station Type Date Time Source
DTTX TAF 2020/09/22 18:03 UTC NOAA

TAF DTTX 221700Z 2218/2318 13005KT 9999 FEW030 PROB30
TEMPO 2220/2224 4000 TSRA FEW030CB

Example: see airport list